THY344 LTFM-UCFM
Flight info
| Callsign | THY344 |
|---|---|
| Flight time | 4h 48m |
| Altitude | 33000 |
| Route | VICEN1D/35L VICEN UT380 ASMAP UL333 LATGA UT363 GURBU UL615 ERZ UN161 INDUR DCT MATAL M11 EDATA/N0458F350 N199 RASAM L88 METKA B476 TIMGA A480 OTBOR/K0841F350 N147 PIDWO Y720 LAPZE Z640 GILAT N102 FODIK N143 KOLAM Z580 OGTOL B357 GASTA JETTO1 |
| Aircraft | A21N/M-SDE3FGHIRWY/LB1 |
Departure
| Time | 2026-05-03 21:32 |
|---|---|
| Airport | İstanbul Airport (LTFM) |
Arrival
| Time | 2026-05-04 02:21 |
|---|---|
| Airport | Manas International Airport (UCFM) |
| Time | Latitude | Longitude | Altitude | Speed | Heading |
|---|---|---|---|---|---|
| 2026-05-03 21:03 | 41.26056 | 28.73617 | 334 ft | 0 kts | 106° |
| 2026-05-03 21:23 | 41.26058 | 28.73608 | 334 ft | 2 kts | 104° |
| 2026-05-03 21:23 | 41.26060 | 28.73589 | 334 ft | 2 kts | 94° |
| 2026-05-03 21:23 | 41.26060 | 28.73569 | 334 ft | 2 kts | 86° |
| 2026-05-03 21:24 | 41.26059 | 28.73549 | 334 ft | 2 kts | 78° |
| 2026-05-03 21:24 | 41.26055 | 28.73530 | 334 ft | 2 kts | 70° |
| 2026-05-03 21:24 | 41.26049 | 28.73512 | 334 ft | 2 kts | 62° |
| 2026-05-03 21:24 | 41.26041 | 28.73494 | 334 ft | 2 kts | 54° |
| 2026-05-03 21:25 | 41.26031 | 28.73479 | 334 ft | 2 kts | 46° |
| 2026-05-03 21:25 | 41.26020 | 28.73466 | 334 ft | 2 kts | 38° |
| 2026-05-03 21:25 | 41.26008 | 28.73454 | 334 ft | 2 kts | 30° |
| 2026-05-03 21:25 | 41.25995 | 28.73446 | 334 ft | 2 kts | 22° |
| 2026-05-03 21:26 | 41.25985 | 28.73441 | 334 ft | 0 kts | 17° |
| 2026-05-03 21:27 | 41.25986 | 28.73441 | 334 ft | 1 kts | 17° |
| 2026-05-03 21:28 | 41.25999 | 28.73447 | 334 ft | 2 kts | 17° |
| 2026-05-03 21:28 | 41.26022 | 28.73456 | 334 ft | 4 kts | 17° |
| 2026-05-03 21:28 | 41.26065 | 28.73474 | 334 ft | 12 kts | 17° |
| 2026-05-03 21:28 | 41.26172 | 28.73507 | 334 ft | 15 kts | 355° |
| 2026-05-03 21:29 | 41.26219 | 28.73399 | 334 ft | 14 kts | 272° |
| 2026-05-03 21:29 | 41.26223 | 28.73263 | 334 ft | 14 kts | 271° |
| 2026-05-03 21:29 | 41.26220 | 28.73132 | 334 ft | 14 kts | 266° |
| 2026-05-03 21:29 | 41.26217 | 28.73001 | 334 ft | 12 kts | 270° |
| 2026-05-03 21:30 | 41.26217 | 28.72974 | 334 ft | 0 kts | 271° |
| 2026-05-03 21:30 | 41.26217 | 28.72968 | 334 ft | 2 kts | 271° |
| 2026-05-03 21:30 | 41.26218 | 28.72930 | 334 ft | 5 kts | 272° |
| 2026-05-03 21:30 | 41.26220 | 28.72854 | 334 ft | 14 kts | 271° |
| 2026-05-03 21:31 | 41.26217 | 28.72693 | 334 ft | 17 kts | 270° |
| 2026-05-03 21:31 | 41.26227 | 28.72555 | 334 ft | 12 kts | 298° |
| 2026-05-03 21:31 | 41.26297 | 28.72519 | 334 ft | 4 kts | 360° |
| 2026-05-03 21:31 | 41.26326 | 28.72519 | 334 ft | 22 kts | 359° |
| 2026-05-03 21:32 | 41.26718 | 28.72511 | 334 ft | 86 kts | 359° |
| 2026-05-03 21:32 | 41.27516 | 28.72494 | 335 ft | 139 kts | 1° |
| 2026-05-03 21:32 | 41.28618 | 28.72462 | 430 ft | 172 kts | 1° |
| 2026-05-03 21:32 | 41.29806 | 28.72401 | 1082 ft | 167 kts | 1° |
| 2026-05-03 21:33 | 41.30954 | 28.72371 | 1778 ft | 168 kts | 4° |
| 2026-05-03 21:33 | 41.32173 | 28.72453 | 2093 ft | 186 kts | 5° |
| 2026-05-03 21:33 | 41.33528 | 28.72516 | 2400 ft | 201 kts | 5° |
| 2026-05-03 21:33 | 41.35003 | 28.72593 | 2708 ft | 217 kts | 3° |
| 2026-05-03 21:34 | 41.36510 | 28.72128 | 3116 ft | 236 kts | 335° |
| 2026-05-03 21:34 | 41.37718 | 28.70557 | 3772 ft | 253 kts | 308° |
| 2026-05-03 21:34 | 41.38235 | 28.68258 | 4355 ft | 273 kts | 280° |
| 2026-05-03 21:34 | 41.38221 | 28.65733 | 4972 ft | 278 kts | 275° |
| 2026-05-03 21:35 | 41.38159 | 28.63106 | 5565 ft | 282 kts | 275° |
| 2026-05-03 21:35 | 41.38104 | 28.60495 | 6161 ft | 286 kts | 275° |
| 2026-05-03 21:35 | 41.37743 | 28.57872 | 6715 ft | 300 kts | 249° |
| 2026-05-03 21:35 | 41.36404 | 28.55706 | 7352 ft | 307 kts | 214° |
| 2026-05-03 21:36 | 41.34435 | 28.54727 | 7947 ft | 304 kts | 182° |
| 2026-05-03 21:36 | 41.32322 | 28.54755 | 8518 ft | 303 kts | 172° |
| 2026-05-03 21:36 | 41.30193 | 28.54992 | 9070 ft | 307 kts | 172° |
| 2026-05-03 21:36 | 41.28071 | 28.55179 | 9653 ft | 310 kts | 173° |
| 2026-05-03 21:37 | 41.25898 | 28.55397 | 10207 ft | 309 kts | 164° |
| 2026-05-03 21:37 | 41.23934 | 28.56469 | 10502 ft | 307 kts | 138° |
| 2026-05-03 21:37 | 41.22331 | 28.58388 | 10790 ft | 313 kts | 129° |
| 2026-05-03 21:37 | 41.20761 | 28.60504 | 11038 ft | 326 kts | 129° |
| 2026-05-03 21:38 | 41.19133 | 28.62676 | 11277 ft | 339 kts | 130° |
| 2026-05-03 21:38 | 41.17406 | 28.64930 | 11510 ft | 352 kts | 131° |
| 2026-05-03 21:38 | 41.15598 | 28.67254 | 11735 ft | 364 kts | 131° |
| 2026-05-03 21:38 | 41.13799 | 28.69640 | 11986 ft | 372 kts | 128° |
| 2026-05-03 21:39 | 41.12109 | 28.72286 | 12447 ft | 373 kts | 123° |
| 2026-05-03 21:39 | 41.10607 | 28.75106 | 12946 ft | 373 kts | 120° |
| 2026-05-03 21:39 | 41.09194 | 28.77974 | 13415 ft | 375 kts | 119° |
| 2026-05-03 21:39 | 41.07763 | 28.80908 | 13873 ft | 378 kts | 119° |
| 2026-05-03 21:40 | 41.06333 | 28.83831 | 14332 ft | 380 kts | 119° |
| 2026-05-03 21:40 | 41.04876 | 28.86797 | 14801 ft | 382 kts | 119° |
| 2026-05-03 21:40 | 41.03414 | 28.89720 | 15248 ft | 384 kts | 121° |
| 2026-05-03 21:40 | 41.01765 | 28.92606 | 15697 ft | 388 kts | 125° |
| 2026-05-03 21:41 | 40.99977 | 28.95277 | 16125 ft | 392 kts | 130° |
| 2026-05-03 21:41 | 40.98038 | 28.97847 | 16537 ft | 395 kts | 131° |
| 2026-05-03 21:41 | 40.96090 | 29.00378 | 16931 ft | 397 kts | 131° |
| 2026-05-03 21:41 | 40.94092 | 29.02969 | 17340 ft | 398 kts | 131° |
| 2026-05-03 21:42 | 40.92120 | 29.05527 | 17728 ft | 400 kts | 132° |
| 2026-05-03 21:42 | 40.90138 | 29.08100 | 18105 ft | 401 kts | 132° |
| 2026-05-03 21:42 | 40.88135 | 29.10684 | 18465 ft | 403 kts | 132° |
| 2026-05-03 21:42 | 40.86174 | 29.13349 | 18813 ft | 402 kts | 126° |
| 2026-05-03 21:43 | 40.84607 | 29.16383 | 19156 ft | 399 kts | 115° |
| 2026-05-03 21:43 | 40.83518 | 29.19728 | 19479 ft | 398 kts | 105° |
| 2026-05-03 21:43 | 40.82767 | 29.23286 | 19802 ft | 398 kts | 102° |
| 2026-05-03 21:43 | 40.82091 | 29.26807 | 20098 ft | 401 kts | 101° |
| 2026-05-03 21:44 | 40.81401 | 29.30407 | 20320 ft | 405 kts | 102° |
| 2026-05-03 21:44 | 40.80695 | 29.34009 | 20442 ft | 411 kts | 102° |
| 2026-05-03 21:44 | 40.79970 | 29.37670 | 20676 ft | 414 kts | 102° |
| 2026-05-03 21:44 | 40.79230 | 29.41388 | 20958 ft | 416 kts | 102° |
| 2026-05-03 21:45 | 40.78502 | 29.45042 | 21237 ft | 417 kts | 102° |
| 2026-05-03 21:45 | 40.77762 | 29.48747 | 21510 ft | 419 kts | 102° |
| 2026-05-03 21:45 | 40.77013 | 29.52489 | 21771 ft | 420 kts | 102° |
| 2026-05-03 21:45 | 40.76268 | 29.56199 | 22024 ft | 422 kts | 102° |
| 2026-05-03 21:46 | 40.75518 | 29.59925 | 22282 ft | 423 kts | 102° |
| 2026-05-03 21:46 | 40.74762 | 29.63679 | 22544 ft | 424 kts | 102° |
| 2026-05-03 21:46 | 40.74070 | 29.67484 | 22778 ft | 425 kts | 100° |
| 2026-05-03 21:46 | 40.73586 | 29.71324 | 22995 ft | 426 kts | 96° |
| 2026-05-03 21:47 | 40.73315 | 29.75254 | 23222 ft | 427 kts | 92° |
| 2026-05-03 21:47 | 40.73217 | 29.79151 | 23450 ft | 428 kts | 90° |
| 2026-05-03 21:47 | 40.73151 | 29.83047 | 23671 ft | 429 kts | 90° |
| 2026-05-03 21:47 | 40.73089 | 29.87018 | 23889 ft | 430 kts | 90° |
| 2026-05-03 21:48 | 40.73024 | 29.90950 | 24102 ft | 432 kts | 90° |
| 2026-05-03 21:48 | 40.72953 | 29.94898 | 24286 ft | 433 kts | 91° |
| 2026-05-03 21:48 | 40.72877 | 29.98856 | 24533 ft | 433 kts | 90° |
| 2026-05-03 21:48 | 40.72729 | 30.02818 | 24847 ft | 431 kts | 94° |
| 2026-05-03 21:49 | 40.72306 | 30.06753 | 25193 ft | 430 kts | 99° |
| 2026-05-03 21:49 | 40.71613 | 30.10562 | 25486 ft | 429 kts | 105° |
| 2026-05-03 21:49 | 40.70696 | 30.14288 | 25772 ft | 428 kts | 107° |
| 2026-05-03 21:49 | 40.69726 | 30.18012 | 26073 ft | 427 kts | 108° |
| 2026-05-03 21:50 | 40.68748 | 30.21711 | 26383 ft | 425 kts | 108° |
| 2026-05-03 21:50 | 40.67797 | 30.25361 | 26675 ft | 423 kts | 107° |
| 2026-05-03 21:50 | 40.66993 | 30.29081 | 26979 ft | 421 kts | 103° |
| 2026-05-03 21:50 | 40.66381 | 30.32853 | 27289 ft | 419 kts | 99° |
| 2026-05-03 21:51 | 40.65972 | 30.36599 | 27581 ft | 417 kts | 96° |
| 2026-05-03 21:51 | 40.65652 | 30.40407 | 27854 ft | 416 kts | 96° |
| 2026-05-03 21:51 | 40.65345 | 30.44159 | 28123 ft | 415 kts | 96° |
| 2026-05-03 21:51 | 40.65036 | 30.47930 | 28430 ft | 413 kts | 96° |
| 2026-05-03 21:52 | 40.64728 | 30.51686 | 28692 ft | 412 kts | 96° |
| 2026-05-03 21:52 | 40.64417 | 30.55446 | 28966 ft | 410 kts | 97° |
| 2026-05-03 21:52 | 40.64108 | 30.59148 | 29228 ft | 409 kts | 97° |
| 2026-05-03 21:52 | 40.63797 | 30.62861 | 29489 ft | 408 kts | 97° |
| 2026-05-03 21:53 | 40.63472 | 30.66560 | 29762 ft | 406 kts | 98° |
| 2026-05-03 21:53 | 40.63033 | 30.70234 | 30039 ft | 404 kts | 101° |
| 2026-05-03 21:53 | 40.62450 | 30.73877 | 30306 ft | 403 kts | 104° |
| 2026-05-03 21:53 | 40.61747 | 30.77422 | 30588 ft | 400 kts | 106° |
| 2026-05-03 21:54 | 40.61014 | 30.80920 | 30854 ft | 398 kts | 106° |
| 2026-05-03 21:54 | 40.60275 | 30.84436 | 31075 ft | 398 kts | 106° |
| 2026-05-03 21:54 | 40.59531 | 30.87957 | 31217 ft | 399 kts | 106° |
| 2026-05-03 21:54 | 40.58791 | 30.91453 | 31325 ft | 400 kts | 106° |
| 2026-05-03 21:55 | 40.58041 | 30.94998 | 31474 ft | 401 kts | 106° |
| 2026-05-03 21:55 | 40.57291 | 30.98531 | 31645 ft | 401 kts | 106° |
| 2026-05-03 21:55 | 40.56541 | 31.02057 | 31791 ft | 401 kts | 106° |
| 2026-05-03 21:55 | 40.55793 | 31.05575 | 31912 ft | 402 kts | 106° |
| 2026-05-03 21:56 | 40.55033 | 31.09144 | 32030 ft | 403 kts | 106° |
| 2026-05-03 21:56 | 40.54279 | 31.12673 | 32150 ft | 404 kts | 106° |
| 2026-05-03 21:56 | 40.53516 | 31.16239 | 32281 ft | 405 kts | 107° |
| 2026-05-03 21:56 | 40.52756 | 31.19782 | 32408 ft | 405 kts | 107° |
| 2026-05-03 21:57 | 40.51213 | 31.26923 | 32552 ft | 407 kts | 107° |
| 2026-05-03 21:57 | 40.50435 | 31.30500 | 32690 ft | 407 kts | 106° |
| 2026-05-03 21:57 | 40.49659 | 31.34089 | 32733 ft | 409 kts | 106° |
| 2026-05-03 21:58 | 40.48101 | 31.41281 | 32736 ft | 409 kts | 107° |
| 2026-05-03 21:58 | 40.46540 | 31.48449 | 32688 ft | 409 kts | 107° |
| 2026-05-03 21:59 | 40.44975 | 31.55587 | 32683 ft | 410 kts | 107° |
| 2026-05-03 21:59 | 40.43392 | 31.62806 | 32691 ft | 410 kts | 107° |
| 2026-05-03 22:00 | 40.41811 | 31.70023 | 32682 ft | 411 kts | 107° |
| 2026-05-03 22:00 | 40.40237 | 31.77200 | 32673 ft | 410 kts | 107° |
| 2026-05-03 22:01 | 40.38660 | 31.84359 | 32678 ft | 411 kts | 107° |
| 2026-05-03 22:01 | 40.37063 | 31.91574 | 32656 ft | 411 kts | 108° |
| 2026-05-03 22:02 | 40.35460 | 31.98759 | 32677 ft | 410 kts | 107° |
| 2026-05-03 22:02 | 40.33852 | 32.05920 | 32692 ft | 410 kts | 108° |
| 2026-05-03 22:03 | 40.32335 | 32.13141 | 32703 ft | 411 kts | 106° |
| 2026-05-03 22:03 | 40.30907 | 32.20351 | 32722 ft | 410 kts | 106° |
| 2026-05-03 22:04 | 40.29471 | 32.27608 | 32712 ft | 410 kts | 106° |
| 2026-05-03 22:04 | 40.28043 | 32.34803 | 32718 ft | 410 kts | 106° |
| 2026-05-03 22:05 | 40.26608 | 32.42015 | 32715 ft | 409 kts | 106° |
| 2026-05-03 22:05 | 40.25164 | 32.49232 | 32692 ft | 409 kts | 106° |
| 2026-05-03 22:06 | 40.23717 | 32.56452 | 32687 ft | 410 kts | 106° |
| 2026-05-03 22:06 | 40.22264 | 32.63677 | 32704 ft | 410 kts | 106° |
| 2026-05-03 22:07 | 40.20816 | 32.70880 | 32705 ft | 409 kts | 107° |
| 2026-05-03 22:07 | 40.19365 | 32.78082 | 32694 ft | 410 kts | 107° |
| 2026-05-03 22:08 | 40.17900 | 32.85294 | 32704 ft | 410 kts | 107° |
| 2026-05-03 22:08 | 40.16457 | 32.92474 | 32719 ft | 410 kts | 106° |
| 2026-05-03 22:09 | 40.15413 | 32.99810 | 32695 ft | 412 kts | 101° |
| 2026-05-03 22:10 | 40.14917 | 33.11080 | 32696 ft | 416 kts | 93° |
| 2026-05-03 22:10 | 40.15118 | 33.18663 | 32690 ft | 417 kts | 92° |
| 2026-05-03 22:11 | 40.15334 | 33.26231 | 32705 ft | 416 kts | 92° |
| 2026-05-03 22:11 | 40.15547 | 33.33755 | 32682 ft | 416 kts | 92° |
| 2026-05-03 22:12 | 40.15754 | 33.41314 | 32704 ft | 417 kts | 92° |
| 2026-05-03 22:12 | 40.15956 | 33.48887 | 32690 ft | 418 kts | 92° |
| 2026-05-03 22:13 | 40.16153 | 33.56422 | 32694 ft | 417 kts | 92° |
| 2026-05-03 22:13 | 40.16349 | 33.63988 | 32707 ft | 417 kts | 92° |
| 2026-05-03 22:14 | 40.16536 | 33.71577 | 32712 ft | 417 kts | 93° |
| 2026-05-03 22:14 | 40.16649 | 33.79108 | 32704 ft | 415 kts | 95° |
| 2026-05-03 22:15 | 40.16246 | 33.86587 | 32705 ft | 413 kts | 101° |
| 2026-05-03 22:15 | 40.15332 | 33.93955 | 32713 ft | 412 kts | 103° |
| 2026-05-03 22:16 | 40.14488 | 34.01411 | 32702 ft | 413 kts | 102° |
| 2026-05-03 22:16 | 40.13686 | 34.08813 | 32706 ft | 414 kts | 101° |
| 2026-05-03 22:17 | 40.12875 | 34.16261 | 32720 ft | 414 kts | 102° |
| 2026-05-03 22:17 | 40.12066 | 34.23662 | 32720 ft | 414 kts | 102° |
| 2026-05-03 22:18 | 40.11248 | 34.31092 | 32725 ft | 414 kts | 102° |
| 2026-05-03 22:18 | 40.10424 | 34.38533 | 32711 ft | 414 kts | 102° |
| 2026-05-03 22:19 | 40.09592 | 34.45987 | 32714 ft | 416 kts | 102° |
| 2026-05-03 22:19 | 40.08755 | 34.53456 | 32704 ft | 416 kts | 102° |
| 2026-05-03 22:20 | 40.07912 | 34.60936 | 32717 ft | 415 kts | 102° |
| 2026-05-03 22:20 | 40.07063 | 34.68442 | 32711 ft | 416 kts | 103° |
| 2026-05-03 22:21 | 40.06213 | 34.75928 | 32717 ft | 416 kts | 103° |
| 2026-05-03 22:21 | 40.05362 | 34.83363 | 32712 ft | 417 kts | 103° |
| 2026-05-03 22:22 | 40.04499 | 34.90836 | 32706 ft | 417 kts | 103° |
| 2026-05-03 22:22 | 40.03627 | 34.98350 | 32684 ft | 418 kts | 103° |
| 2026-05-03 22:23 | 40.02751 | 35.05868 | 32713 ft | 420 kts | 103° |
| 2026-05-03 22:23 | 40.01859 | 35.13441 | 32714 ft | 421 kts | 103° |
| 2026-05-03 22:24 | 40.00971 | 35.20969 | 32715 ft | 422 kts | 103° |
| 2026-05-03 22:24 | 40.00074 | 35.28546 | 32720 ft | 421 kts | 103° |
| 2026-05-03 22:25 | 39.99173 | 35.36072 | 32723 ft | 422 kts | 104° |
| 2026-05-03 22:25 | 39.98224 | 35.43667 | 32721 ft | 423 kts | 104° |
| 2026-05-03 22:26 | 39.97263 | 35.51241 | 32731 ft | 424 kts | 104° |
| 2026-05-03 22:26 | 39.96301 | 35.58802 | 32733 ft | 425 kts | 104° |
| 2026-05-03 22:27 | 39.95336 | 35.66385 | 32729 ft | 425 kts | 105° |
| 2026-05-03 22:27 | 39.94367 | 35.73995 | 32725 ft | 426 kts | 105° |
| 2026-05-03 22:28 | 39.93390 | 35.81615 | 32725 ft | 426 kts | 105° |
| 2026-05-03 22:28 | 39.92406 | 35.89215 | 32725 ft | 428 kts | 105° |
| 2026-05-03 22:29 | 39.91417 | 35.96806 | 32727 ft | 428 kts | 105° |
| 2026-05-03 22:29 | 39.90411 | 36.04475 | 32730 ft | 428 kts | 105° |
| 2026-05-03 22:30 | 39.89400 | 36.12077 | 32735 ft | 428 kts | 105° |
| 2026-05-03 22:30 | 39.88366 | 36.19739 | 32736 ft | 429 kts | 105° |
| 2026-05-03 22:31 | 39.87348 | 36.27370 | 32737 ft | 430 kts | 105° |
| 2026-05-03 22:31 | 39.86241 | 36.34988 | 32732 ft | 429 kts | 107° |
| 2026-05-03 22:32 | 39.85170 | 36.42615 | 32736 ft | 431 kts | 105° |
| 2026-05-03 22:32 | 39.84153 | 36.50284 | 32734 ft | 431 kts | 105° |
| 2026-05-03 22:33 | 39.83134 | 36.57960 | 32733 ft | 432 kts | 105° |
| 2026-05-03 22:33 | 39.82108 | 36.65630 | 32737 ft | 433 kts | 105° |
| 2026-05-03 22:34 | 39.81068 | 36.73406 | 32738 ft | 432 kts | 106° |
| 2026-05-03 22:34 | 39.80047 | 36.81082 | 32736 ft | 435 kts | 104° |
| 2026-05-03 22:35 | 39.79449 | 36.88917 | 32741 ft | 439 kts | 98° |
| 2026-05-03 22:35 | 39.79509 | 36.96919 | 32740 ft | 445 kts | 92° |
| 2026-05-03 22:36 | 39.80121 | 37.04969 | 32732 ft | 447 kts | 90° |
| 2026-05-03 22:36 | 39.80790 | 37.12976 | 32737 ft | 449 kts | 90° |
| 2026-05-03 22:37 | 39.81451 | 37.21033 | 32731 ft | 450 kts | 90° |
| 2026-05-03 22:37 | 39.82105 | 37.29098 | 32732 ft | 449 kts | 90° |
| 2026-05-03 22:38 | 39.82756 | 37.37212 | 32747 ft | 449 kts | 90° |
| 2026-05-03 22:38 | 39.83393 | 37.45293 | 32746 ft | 451 kts | 90° |
| 2026-05-03 22:39 | 39.84002 | 37.53353 | 32745 ft | 449 kts | 90° |
| 2026-05-03 22:39 | 39.84613 | 37.61448 | 32750 ft | 450 kts | 90° |
| 2026-05-03 22:40 | 39.85225 | 37.69555 | 32759 ft | 450 kts | 91° |
| 2026-05-03 22:40 | 39.85836 | 37.77689 | 32759 ft | 450 kts | 91° |
| 2026-05-03 22:41 | 39.86441 | 37.85791 | 32755 ft | 451 kts | 91° |
| 2026-05-03 22:41 | 39.87037 | 37.93868 | 32743 ft | 450 kts | 90° |
| 2026-05-03 22:42 | 39.87623 | 38.01981 | 32729 ft | 450 kts | 90° |
| 2026-05-03 22:42 | 39.88204 | 38.10102 | 32728 ft | 451 kts | 91° |
| 2026-05-03 22:43 | 39.88784 | 38.18180 | 32733 ft | 450 kts | 90° |
| 2026-05-03 22:43 | 39.89365 | 38.26310 | 32742 ft | 451 kts | 90° |
| 2026-05-03 22:44 | 39.89939 | 38.34428 | 32759 ft | 452 kts | 90° |
| 2026-05-03 22:44 | 39.90511 | 38.42565 | 32766 ft | 453 kts | 90° |
| 2026-05-03 22:45 | 39.91079 | 38.50726 | 32771 ft | 454 kts | 90° |
| 2026-05-03 22:45 | 39.91640 | 38.58898 | 32764 ft | 455 kts | 90° |
| 2026-05-03 22:46 | 39.92201 | 38.67096 | 32776 ft | 454 kts | 90° |
| 2026-05-03 22:46 | 39.92759 | 38.75282 | 32788 ft | 455 kts | 91° |
| 2026-05-03 22:47 | 39.93306 | 38.83441 | 32787 ft | 453 kts | 91° |
| 2026-05-03 22:47 | 39.93702 | 38.91643 | 32781 ft | 451 kts | 94° |
| 2026-05-03 22:48 | 39.93836 | 38.99781 | 32775 ft | 453 kts | 94° |
| 2026-05-03 22:48 | 39.93958 | 39.07955 | 32782 ft | 453 kts | 94° |
| 2026-05-03 22:49 | 39.94080 | 39.16194 | 32763 ft | 455 kts | 94° |
| 2026-05-03 22:49 | 39.94205 | 39.24387 | 32758 ft | 454 kts | 94° |
| 2026-05-03 22:50 | 39.94329 | 39.32614 | 32755 ft | 454 kts | 94° |
| 2026-05-03 22:50 | 39.94450 | 39.40791 | 32770 ft | 453 kts | 94° |
| 2026-05-03 22:51 | 39.94571 | 39.48960 | 32777 ft | 453 kts | 94° |
| 2026-05-03 22:51 | 39.94679 | 39.57210 | 32782 ft | 454 kts | 94° |
| 2026-05-03 22:52 | 39.94775 | 39.65366 | 32783 ft | 454 kts | 95° |
| 2026-05-03 22:52 | 39.94870 | 39.73568 | 32779 ft | 453 kts | 94° |
| 2026-05-03 22:53 | 39.94970 | 39.81820 | 32775 ft | 454 kts | 94° |
| 2026-05-03 22:53 | 39.95061 | 39.90015 | 32773 ft | 454 kts | 94° |
| 2026-05-03 22:54 | 39.95127 | 39.98229 | 32781 ft | 454 kts | 94° |
| 2026-05-03 22:54 | 39.95188 | 40.06435 | 32782 ft | 454 kts | 94° |
| 2026-05-03 22:55 | 39.95252 | 40.14634 | 32780 ft | 454 kts | 94° |
| 2026-05-03 22:55 | 39.95311 | 40.22863 | 32785 ft | 454 kts | 94° |
| 2026-05-03 22:56 | 39.95366 | 40.31064 | 32784 ft | 454 kts | 94° |
| 2026-05-03 22:56 | 39.95416 | 40.39259 | 32796 ft | 455 kts | 94° |
| 2026-05-03 22:57 | 39.95461 | 40.47509 | 32814 ft | 455 kts | 94° |
| 2026-05-03 22:57 | 39.95504 | 40.55760 | 32811 ft | 457 kts | 94° |
| 2026-05-03 22:58 | 39.95540 | 40.63984 | 32823 ft | 457 kts | 94° |
| 2026-05-03 22:58 | 39.95559 | 40.72282 | 32827 ft | 458 kts | 95° |
| 2026-05-03 22:59 | 39.95570 | 40.80575 | 32824 ft | 457 kts | 95° |
| 2026-05-03 22:59 | 39.95586 | 40.88785 | 32827 ft | 455 kts | 95° |
| 2026-05-03 23:00 | 39.95600 | 40.97092 | 32828 ft | 456 kts | 95° |
| 2026-05-03 23:00 | 39.95611 | 41.05369 | 32827 ft | 457 kts | 95° |
| 2026-05-03 23:01 | 39.95612 | 41.13624 | 32836 ft | 458 kts | 95° |
| 2026-05-03 23:01 | 39.95717 | 41.21989 | 32838 ft | 462 kts | 91° |
| 2026-05-03 23:02 | 39.96281 | 41.30314 | 32842 ft | 463 kts | 89° |
| 2026-05-03 23:02 | 39.96915 | 41.38665 | 32847 ft | 461 kts | 89° |
| 2026-05-03 23:03 | 39.97532 | 41.46979 | 32856 ft | 462 kts | 89° |
| 2026-05-03 23:03 | 39.98145 | 41.55323 | 32871 ft | 463 kts | 89° |
| 2026-05-03 23:04 | 39.98754 | 41.63662 | 32880 ft | 463 kts | 89° |
| 2026-05-03 23:04 | 39.99359 | 41.72082 | 32870 ft | 463 kts | 90° |
| 2026-05-03 23:05 | 39.99950 | 41.80421 | 32875 ft | 463 kts | 90° |
| 2026-05-03 23:05 | 40.00549 | 41.88788 | 32875 ft | 464 kts | 89° |
| 2026-05-03 23:06 | 40.01149 | 41.97185 | 32886 ft | 465 kts | 89° |
| 2026-05-03 23:06 | 40.01751 | 42.05607 | 32893 ft | 466 kts | 89° |
| 2026-05-03 23:07 | 40.02345 | 42.14019 | 32899 ft | 466 kts | 89° |
| 2026-05-03 23:07 | 40.02935 | 42.22435 | 32903 ft | 465 kts | 89° |
| 2026-05-03 23:08 | 40.03517 | 42.30799 | 32912 ft | 466 kts | 89° |
| 2026-05-03 23:08 | 40.04098 | 42.39231 | 32910 ft | 465 kts | 90° |
| 2026-05-03 23:09 | 40.04647 | 42.47596 | 32932 ft | 466 kts | 90° |
| 2026-05-03 23:09 | 40.05148 | 42.55914 | 32948 ft | 467 kts | 90° |
| 2026-05-03 23:10 | 40.05664 | 42.64401 | 32949 ft | 467 kts | 90° |
| 2026-05-03 23:10 | 40.06179 | 42.72826 | 32950 ft | 467 kts | 90° |
| 2026-05-03 23:11 | 40.06696 | 42.81313 | 32949 ft | 467 kts | 90° |
| 2026-05-03 23:11 | 40.07200 | 42.89723 | 32963 ft | 467 kts | 90° |
| 2026-05-03 23:12 | 40.07692 | 42.98198 | 32972 ft | 466 kts | 90° |
| 2026-05-03 23:12 | 40.08175 | 43.06679 | 32981 ft | 467 kts | 90° |
| 2026-05-03 23:13 | 40.08663 | 43.15151 | 32982 ft | 468 kts | 90° |
| 2026-05-03 23:13 | 40.09148 | 43.23570 | 32981 ft | 469 kts | 90° |
| 2026-05-03 23:14 | 40.09632 | 43.32081 | 32979 ft | 469 kts | 90° |
| 2026-05-03 23:14 | 40.10104 | 43.40613 | 32973 ft | 470 kts | 90° |
| 2026-05-03 23:15 | 40.10593 | 43.49142 | 32959 ft | 470 kts | 90° |
| 2026-05-03 23:15 | 40.11148 | 43.57743 | 32951 ft | 472 kts | 86° |
| 2026-05-03 23:16 | 40.12371 | 43.66172 | 32931 ft | 477 kts | 80° |
| 2026-05-03 23:16 | 40.14449 | 43.74467 | 32911 ft | 482 kts | 72° |
| 2026-05-03 23:17 | 40.17237 | 43.82450 | 32906 ft | 484 kts | 68° |
| 2026-05-03 23:17 | 40.20156 | 43.90361 | 32894 ft | 484 kts | 68° |
| 2026-05-03 23:18 | 40.23067 | 43.98317 | 32903 ft | 483 kts | 68° |
| 2026-05-03 23:18 | 40.25956 | 44.06271 | 32900 ft | 484 kts | 67° |
| 2026-05-03 23:19 | 40.28825 | 44.14201 | 32912 ft | 484 kts | 68° |
| 2026-05-03 23:19 | 40.31711 | 44.22206 | 32922 ft | 484 kts | 68° |
| 2026-05-03 23:20 | 40.34569 | 44.30156 | 32948 ft | 485 kts | 67° |
| 2026-05-03 23:20 | 40.37460 | 44.38216 | 32957 ft | 485 kts | 68° |
| 2026-05-03 23:21 | 40.40318 | 44.46209 | 32960 ft | 485 kts | 67° |
| 2026-05-03 23:21 | 40.43171 | 44.54213 | 32974 ft | 486 kts | 67° |
| 2026-05-03 23:22 | 40.47469 | 44.66305 | 32975 ft | 485 kts | 68° |
| 2026-05-03 23:22 | 40.50318 | 44.74380 | 32981 ft | 487 kts | 68° |
| 2026-05-03 23:23 | 40.53159 | 44.82441 | 32983 ft | 487 kts | 68° |
| 2026-05-03 23:23 | 40.55993 | 44.90496 | 32983 ft | 487 kts | 68° |
| 2026-05-03 23:24 | 40.58826 | 44.98563 | 32994 ft | 488 kts | 68° |
| 2026-05-03 23:24 | 40.61670 | 45.06684 | 32976 ft | 488 kts | 68° |
| 2026-05-03 23:25 | 40.64521 | 45.14842 | 32985 ft | 489 kts | 68° |
| 2026-05-03 23:25 | 40.67345 | 45.22946 | 32990 ft | 489 kts | 68° |
| 2026-05-03 23:26 | 40.70181 | 45.31097 | 32993 ft | 488 kts | 67° |
| 2026-05-03 23:26 | 40.72989 | 45.39231 | 32996 ft | 489 kts | 68° |
| 2026-05-03 23:27 | 40.75090 | 45.47745 | 32988 ft | 485 kts | 80° |
| 2026-05-03 23:27 | 40.75901 | 45.56464 | 32971 ft | 482 kts | 91° |
| 2026-05-03 23:28 | 40.75500 | 45.65207 | 32972 ft | 477 kts | 101° |
| 2026-05-03 23:28 | 40.74672 | 45.73921 | 32984 ft | 477 kts | 101° |
| 2026-05-03 23:29 | 40.73848 | 45.82619 | 32988 ft | 477 kts | 101° |
| 2026-05-03 23:29 | 40.73042 | 45.91262 | 32966 ft | 478 kts | 101° |
| 2026-05-03 23:30 | 40.72232 | 45.99970 | 32963 ft | 479 kts | 100° |
| 2026-05-03 23:30 | 40.71416 | 46.08686 | 32951 ft | 480 kts | 101° |
| 2026-05-03 23:31 | 40.70592 | 46.17444 | 32942 ft | 479 kts | 100° |
| 2026-05-03 23:31 | 40.69768 | 46.26120 | 32933 ft | 480 kts | 100° |
| 2026-05-03 23:32 | 40.68931 | 46.34848 | 32937 ft | 481 kts | 100° |
| 2026-05-03 23:32 | 40.68085 | 46.43610 | 32940 ft | 481 kts | 100° |
| 2026-05-03 23:33 | 40.67238 | 46.52322 | 32943 ft | 481 kts | 100° |
| 2026-05-03 23:33 | 40.66381 | 46.61057 | 32942 ft | 481 kts | 100° |
| 2026-05-03 23:34 | 40.65518 | 46.69816 | 32946 ft | 481 kts | 101° |
| 2026-05-03 23:34 | 40.64653 | 46.78549 | 32948 ft | 481 kts | 101° |
| 2026-05-03 23:35 | 40.63782 | 46.87266 | 32948 ft | 482 kts | 101° |
| 2026-05-03 23:35 | 40.62899 | 46.96021 | 32948 ft | 482 kts | 101° |
| 2026-05-03 23:36 | 40.62016 | 47.04750 | 32952 ft | 482 kts | 101° |
| 2026-05-03 23:36 | 40.61120 | 47.13494 | 32954 ft | 482 kts | 101° |
| 2026-05-03 23:37 | 40.60477 | 47.22264 | 32949 ft | 484 kts | 95° |
| 2026-05-03 23:37 | 40.60216 | 47.31133 | 32946 ft | 485 kts | 94° |
| 2026-05-03 23:38 | 40.59978 | 47.40020 | 32945 ft | 485 kts | 95° |
| 2026-05-03 23:38 | 40.59724 | 47.48903 | 32946 ft | 486 kts | 95° |
| 2026-05-03 23:39 | 40.59460 | 47.57777 | 32943 ft | 486 kts | 94° |
| 2026-05-03 23:39 | 40.59190 | 47.66633 | 32944 ft | 487 kts | 95° |
| 2026-05-03 23:40 | 40.58915 | 47.75556 | 32945 ft | 487 kts | 95° |
| 2026-05-03 23:40 | 40.58636 | 47.84405 | 32947 ft | 486 kts | 95° |
| 2026-05-03 23:41 | 40.58350 | 47.93272 | 32949 ft | 487 kts | 94° |
| 2026-05-03 23:41 | 40.58450 | 48.02226 | 32951 ft | 489 kts | 90° |
| 2026-05-03 23:42 | 40.58727 | 48.11156 | 32957 ft | 490 kts | 90° |
| 2026-05-03 23:42 | 40.58978 | 48.20118 | 32956 ft | 491 kts | 90° |
| 2026-05-03 23:43 | 40.59200 | 48.29110 | 32958 ft | 492 kts | 90° |
| 2026-05-03 23:43 | 40.59423 | 48.38136 | 32962 ft | 494 kts | 90° |
| 2026-05-03 23:44 | 40.59645 | 48.47166 | 32960 ft | 495 kts | 90° |
| 2026-05-03 23:44 | 40.59861 | 48.56221 | 32959 ft | 495 kts | 90° |
| 2026-05-03 23:45 | 40.60071 | 48.65242 | 32952 ft | 496 kts | 91° |
| 2026-05-03 23:45 | 40.60278 | 48.74378 | 32952 ft | 497 kts | 91° |
| 2026-05-03 23:46 | 40.60477 | 48.83534 | 32953 ft | 498 kts | 90° |
| 2026-05-03 23:46 | 40.60672 | 48.92748 | 32949 ft | 499 kts | 91° |
| 2026-05-03 23:47 | 40.60859 | 49.01944 | 32942 ft | 499 kts | 90° |
| 2026-05-03 23:47 | 40.61042 | 49.11058 | 32939 ft | 500 kts | 90° |
| 2026-05-03 23:48 | 40.61247 | 49.20250 | 32947 ft | 501 kts | 89° |
| 2026-05-03 23:48 | 40.61735 | 49.29375 | 32944 ft | 501 kts | 87° |
| 2026-05-03 23:49 | 40.62269 | 49.38499 | 32951 ft | 502 kts | 87° |
| 2026-05-03 23:49 | 40.62796 | 49.47660 | 32958 ft | 502 kts | 87° |
| 2026-05-03 23:50 | 40.63311 | 49.56819 | 32962 ft | 502 kts | 87° |
| 2026-05-03 23:50 | 40.63816 | 49.65951 | 32971 ft | 503 kts | 88° |
| 2026-05-03 23:51 | 40.64316 | 49.75145 | 32977 ft | 502 kts | 88° |
| 2026-05-03 23:51 | 40.64805 | 49.84257 | 32963 ft | 502 kts | 87° |
| 2026-05-03 23:52 | 40.65293 | 49.93450 | 32969 ft | 503 kts | 88° |
| 2026-05-03 23:52 | 40.65773 | 50.02630 | 32978 ft | 503 kts | 88° |
| 2026-05-03 23:53 | 40.66244 | 50.11819 | 32983 ft | 503 kts | 88° |
| 2026-05-03 23:53 | 40.66710 | 50.20970 | 32976 ft | 503 kts | 88° |
| 2026-05-03 23:54 | 40.67172 | 50.30175 | 32973 ft | 503 kts | 87° |
| 2026-05-03 23:54 | 40.67625 | 50.39302 | 32979 ft | 503 kts | 87° |
| 2026-05-03 23:55 | 40.68059 | 50.48475 | 32975 ft | 502 kts | 87° |
| 2026-05-03 23:55 | 40.68479 | 50.57661 | 32968 ft | 502 kts | 87° |
| 2026-05-03 23:56 | 40.68901 | 50.66816 | 32970 ft | 502 kts | 88° |
| 2026-05-03 23:56 | 40.69315 | 50.75952 | 32967 ft | 502 kts | 88° |
| 2026-05-03 23:57 | 40.69727 | 50.85138 | 32971 ft | 502 kts | 88° |
| 2026-05-03 23:57 | 40.70129 | 50.94296 | 32969 ft | 501 kts | 88° |
| 2026-05-03 23:58 | 40.70524 | 51.03405 | 32956 ft | 500 kts | 88° |
| 2026-05-03 23:58 | 40.70912 | 51.12516 | 32967 ft | 501 kts | 88° |
| 2026-05-03 23:59 | 40.71296 | 51.21652 | 32961 ft | 501 kts | 88° |
| 2026-05-03 23:59 | 40.71677 | 51.30813 | 32958 ft | 502 kts | 88° |
| 2026-05-04 00:00 | 40.72049 | 51.39938 | 32960 ft | 502 kts | 88° |
| 2026-05-04 00:00 | 40.72531 | 51.49091 | 32957 ft | 502 kts | 84° |
| 2026-05-04 00:01 | 40.73709 | 51.58116 | 32951 ft | 502 kts | 77° |
| 2026-05-04 00:01 | 40.75220 | 51.67146 | 32953 ft | 502 kts | 77° |
| 2026-05-04 00:02 | 40.76709 | 51.76076 | 32953 ft | 501 kts | 78° |
| 2026-05-04 00:02 | 40.78180 | 51.85054 | 32950 ft | 501 kts | 78° |
| 2026-05-04 00:03 | 40.79639 | 51.94025 | 32958 ft | 501 kts | 78° |
| 2026-05-04 00:03 | 40.81085 | 52.02961 | 32961 ft | 502 kts | 78° |
| 2026-05-04 00:04 | 40.82537 | 52.11974 | 32971 ft | 501 kts | 78° |
| 2026-05-04 00:04 | 40.83969 | 52.20920 | 32967 ft | 501 kts | 78° |
| 2026-05-04 00:05 | 40.85408 | 52.29945 | 32962 ft | 501 kts | 78° |
| 2026-05-04 00:05 | 40.86829 | 52.38879 | 32962 ft | 500 kts | 78° |
| 2026-05-04 00:06 | 40.88251 | 52.47866 | 32960 ft | 500 kts | 78° |
| 2026-05-04 00:06 | 40.89649 | 52.56841 | 32961 ft | 500 kts | 79° |
| 2026-05-04 00:07 | 40.90508 | 52.65881 | 32949 ft | 498 kts | 87° |
| 2026-05-04 00:07 | 40.90897 | 52.75001 | 32952 ft | 498 kts | 88° |
| 2026-05-04 00:08 | 40.91265 | 52.84141 | 32954 ft | 498 kts | 88° |
| 2026-05-04 00:08 | 40.91648 | 52.93276 | 32949 ft | 499 kts | 88° |
| 2026-05-04 00:09 | 40.92036 | 53.02400 | 32944 ft | 498 kts | 88° |
| 2026-05-04 00:09 | 40.92398 | 53.11264 | 32946 ft | 499 kts | 88° |
| 2026-05-04 00:10 | 40.92738 | 53.20421 | 32942 ft | 498 kts | 88° |
| 2026-05-04 00:10 | 40.93066 | 53.29514 | 32940 ft | 497 kts | 88° |
| 2026-05-04 00:11 | 40.93395 | 53.38571 | 32928 ft | 497 kts | 88° |
| 2026-05-04 00:11 | 40.93722 | 53.47678 | 32923 ft | 496 kts | 88° |
| 2026-05-04 00:12 | 40.94042 | 53.56778 | 32917 ft | 496 kts | 88° |
| 2026-05-04 00:12 | 40.94356 | 53.65849 | 32910 ft | 496 kts | 88° |
| 2026-05-04 00:13 | 40.94664 | 53.74947 | 32907 ft | 496 kts | 88° |
| 2026-05-04 00:13 | 40.94966 | 53.84048 | 32905 ft | 496 kts | 88° |
| 2026-05-04 00:14 | 40.95258 | 53.93160 | 32907 ft | 496 kts | 88° |
| 2026-05-04 00:14 | 40.95544 | 54.02240 | 32908 ft | 496 kts | 89° |
| 2026-05-04 00:15 | 40.95823 | 54.11353 | 32916 ft | 497 kts | 88° |
| 2026-05-04 00:15 | 40.96093 | 54.20432 | 32908 ft | 497 kts | 88° |
| 2026-05-04 00:16 | 40.96360 | 54.29553 | 32922 ft | 496 kts | 88° |
| 2026-05-04 00:16 | 40.96620 | 54.38671 | 32934 ft | 495 kts | 88° |
| 2026-05-04 00:17 | 40.96872 | 54.47709 | 32931 ft | 494 kts | 88° |
| 2026-05-04 00:17 | 40.97118 | 54.56817 | 32935 ft | 494 kts | 88° |
| 2026-05-04 00:18 | 40.97357 | 54.65824 | 32942 ft | 493 kts | 89° |
| 2026-05-04 00:18 | 40.97590 | 54.74844 | 32936 ft | 492 kts | 88° |
| 2026-05-04 00:19 | 40.97817 | 54.83875 | 32944 ft | 492 kts | 88° |
| 2026-05-04 00:19 | 40.98024 | 54.92930 | 32943 ft | 491 kts | 89° |
| 2026-05-04 00:20 | 40.98201 | 55.01907 | 32956 ft | 492 kts | 88° |
| 2026-05-04 00:20 | 40.98383 | 55.10967 | 32959 ft | 492 kts | 88° |
| 2026-05-04 00:21 | 40.98565 | 55.19970 | 32953 ft | 490 kts | 88° |
| 2026-05-04 00:21 | 40.98743 | 55.28965 | 32951 ft | 489 kts | 88° |
| 2026-05-04 00:22 | 40.98912 | 55.37919 | 32967 ft | 488 kts | 88° |
| 2026-05-04 00:22 | 40.99077 | 55.46892 | 32954 ft | 488 kts | 88° |
| 2026-05-04 00:23 | 40.99234 | 55.55803 | 32959 ft | 487 kts | 88° |
| 2026-05-04 00:23 | 40.99390 | 55.64754 | 32954 ft | 487 kts | 88° |
| 2026-05-04 00:24 | 40.99538 | 55.73712 | 32955 ft | 487 kts | 89° |
| 2026-05-04 00:24 | 40.99668 | 55.82643 | 32948 ft | 486 kts | 89° |
| 2026-05-04 00:25 | 40.99798 | 55.91554 | 32950 ft | 485 kts | 88° |
| 2026-05-04 00:25 | 40.99932 | 56.00474 | 32951 ft | 484 kts | 88° |
| 2026-05-04 00:26 | 41.00064 | 56.09318 | 32957 ft | 483 kts | 88° |
| 2026-05-04 00:26 | 41.00191 | 56.18182 | 32959 ft | 483 kts | 88° |
| 2026-05-04 00:27 | 41.00314 | 56.27064 | 32966 ft | 482 kts | 88° |
| 2026-05-04 00:27 | 41.00434 | 56.35933 | 32962 ft | 482 kts | 88° |
| 2026-05-04 00:28 | 41.00540 | 56.44743 | 32966 ft | 481 kts | 88° |
| 2026-05-04 00:28 | 41.00935 | 56.53558 | 32968 ft | 481 kts | 82° |
| 2026-05-04 00:29 | 41.01920 | 56.62320 | 32970 ft | 480 kts | 79° |
| 2026-05-04 00:29 | 41.02970 | 56.70985 | 32977 ft | 479 kts | 80° |
| 2026-05-04 00:30 | 41.04012 | 56.79713 | 32990 ft | 479 kts | 80° |
| 2026-05-04 00:30 | 41.05036 | 56.88394 | 32993 ft | 479 kts | 80° |
| 2026-05-04 00:31 | 41.06051 | 56.97070 | 32986 ft | 478 kts | 80° |
| 2026-05-04 00:31 | 41.07058 | 57.05721 | 32982 ft | 478 kts | 80° |
| 2026-05-04 00:32 | 41.08066 | 57.14433 | 32989 ft | 477 kts | 80° |
| 2026-05-04 00:32 | 41.09059 | 57.23090 | 32990 ft | 477 kts | 81° |
| 2026-05-04 00:33 | 41.10547 | 57.36086 | 32992 ft | 477 kts | 80° |
| 2026-05-04 00:34 | 41.11555 | 57.44765 | 32992 ft | 476 kts | 80° |
| 2026-05-04 00:34 | 41.12536 | 57.53425 | 32991 ft | 476 kts | 81° |
| 2026-05-04 00:35 | 41.13502 | 57.62088 | 32992 ft | 476 kts | 81° |
| 2026-05-04 00:35 | 41.14463 | 57.70791 | 32995 ft | 476 kts | 82° |
| 2026-05-04 00:36 | 41.15417 | 57.79522 | 32995 ft | 476 kts | 82° |
| 2026-05-04 00:36 | 41.16353 | 57.88123 | 32993 ft | 475 kts | 81° |
| 2026-05-04 00:37 | 41.17294 | 57.96791 | 32992 ft | 474 kts | 81° |
| 2026-05-04 00:37 | 41.18222 | 58.05417 | 32993 ft | 474 kts | 81° |
| 2026-05-04 00:38 | 41.19138 | 58.14061 | 33000 ft | 474 kts | 82° |
| 2026-05-04 00:38 | 41.20041 | 58.22688 | 33001 ft | 474 kts | 82° |
| 2026-05-04 00:39 | 41.20948 | 58.31377 | 32998 ft | 474 kts | 82° |
| 2026-05-04 00:39 | 41.21845 | 58.39997 | 33001 ft | 474 kts | 81° |
| 2026-05-04 00:40 | 41.22736 | 58.48622 | 33005 ft | 474 kts | 81° |
| 2026-05-04 00:40 | 41.23627 | 58.57293 | 33007 ft | 472 kts | 81° |
| 2026-05-04 00:41 | 41.24507 | 58.65924 | 33013 ft | 472 kts | 82° |
| 2026-05-04 00:41 | 41.25375 | 58.74549 | 33010 ft | 473 kts | 82° |
| 2026-05-04 00:42 | 41.26242 | 58.83203 | 33005 ft | 473 kts | 82° |
| 2026-05-04 00:42 | 41.27098 | 58.91808 | 33006 ft | 472 kts | 82° |
| 2026-05-04 00:43 | 41.27951 | 59.00450 | 33014 ft | 472 kts | 82° |
| 2026-05-04 00:43 | 41.28794 | 59.09031 | 33021 ft | 472 kts | 82° |
| 2026-05-04 00:44 | 41.29635 | 59.17666 | 33026 ft | 472 kts | 82° |
| 2026-05-04 00:44 | 41.30470 | 59.26298 | 33027 ft | 471 kts | 82° |
| 2026-05-04 00:45 | 41.31300 | 59.34959 | 33028 ft | 472 kts | 82° |
| 2026-05-04 00:45 | 41.32118 | 59.43539 | 33032 ft | 472 kts | 82° |
| 2026-05-04 00:46 | 41.32939 | 59.52199 | 33032 ft | 471 kts | 82° |
| 2026-05-04 00:46 | 41.33756 | 59.60834 | 33033 ft | 470 kts | 81° |
| 2026-05-04 00:47 | 41.34994 | 59.69346 | 33037 ft | 470 kts | 75° |
| 2026-05-04 00:47 | 41.36876 | 59.77638 | 33037 ft | 470 kts | 71° |
| 2026-05-04 00:48 | 41.38910 | 59.85886 | 33037 ft | 470 kts | 71° |
| 2026-05-04 00:48 | 41.40929 | 59.94135 | 33043 ft | 471 kts | 71° |
| 2026-05-04 00:49 | 41.42955 | 60.02479 | 33044 ft | 470 kts | 71° |
| 2026-05-04 00:49 | 41.44952 | 60.10743 | 33045 ft | 470 kts | 71° |
| 2026-05-04 00:50 | 41.46943 | 60.19023 | 33045 ft | 469 kts | 71° |
| 2026-05-04 00:50 | 41.48899 | 60.27311 | 33047 ft | 469 kts | 71° |
| 2026-05-04 00:51 | 41.50848 | 60.35623 | 33050 ft | 469 kts | 71° |
| 2026-05-04 00:51 | 41.52786 | 60.43876 | 33051 ft | 469 kts | 71° |
| 2026-05-04 00:52 | 41.54738 | 60.52202 | 33054 ft | 469 kts | 71° |
| 2026-05-04 00:52 | 41.56626 | 60.60513 | 33049 ft | 469 kts | 73° |
| 2026-05-04 00:53 | 41.57953 | 60.69101 | 33050 ft | 471 kts | 81° |
| 2026-05-04 00:53 | 41.58606 | 60.77790 | 33052 ft | 470 kts | 84° |
| 2026-05-04 00:54 | 41.59124 | 60.86463 | 33054 ft | 470 kts | 84° |
| 2026-05-04 00:54 | 41.59650 | 60.95187 | 33055 ft | 470 kts | 84° |
| 2026-05-04 00:55 | 41.60176 | 61.03864 | 33058 ft | 469 kts | 84° |
| 2026-05-04 00:55 | 41.60696 | 61.12524 | 33059 ft | 470 kts | 84° |
| 2026-05-04 00:56 | 41.61209 | 61.21176 | 33057 ft | 471 kts | 84° |
| 2026-05-04 00:56 | 41.61719 | 61.29866 | 33061 ft | 471 kts | 84° |
| 2026-05-04 00:57 | 41.62226 | 61.38611 | 33063 ft | 471 kts | 84° |
| 2026-05-04 00:57 | 41.62724 | 61.47306 | 33063 ft | 471 kts | 84° |
| 2026-05-04 00:58 | 41.63219 | 61.55985 | 33064 ft | 471 kts | 84° |
| 2026-05-04 00:58 | 41.63710 | 61.64675 | 33064 ft | 471 kts | 84° |
| 2026-05-04 00:59 | 41.64189 | 61.73420 | 33065 ft | 471 kts | 84° |
| 2026-05-04 00:59 | 41.64641 | 61.82154 | 33066 ft | 472 kts | 84° |
| 2026-05-04 01:00 | 41.65078 | 61.90879 | 33066 ft | 472 kts | 84° |
| 2026-05-04 01:00 | 41.65518 | 61.99585 | 33068 ft | 472 kts | 84° |
| 2026-05-04 01:01 | 41.65959 | 62.08310 | 33068 ft | 471 kts | 84° |
| 2026-05-04 01:01 | 41.66393 | 62.17009 | 33069 ft | 471 kts | 84° |
| 2026-05-04 01:02 | 41.66822 | 62.25751 | 33068 ft | 471 kts | 84° |
| 2026-05-04 01:02 | 41.67243 | 62.34483 | 33064 ft | 470 kts | 84° |
| 2026-05-04 01:03 | 41.67657 | 62.43193 | 33067 ft | 470 kts | 84° |
| 2026-05-04 01:03 | 41.68066 | 62.51910 | 33065 ft | 470 kts | 84° |
| 2026-05-04 01:04 | 41.68468 | 62.60604 | 33066 ft | 469 kts | 84° |
| 2026-05-04 01:04 | 41.68866 | 62.69368 | 33065 ft | 469 kts | 84° |
| 2026-05-04 01:05 | 41.69255 | 62.78088 | 33066 ft | 469 kts | 84° |
| 2026-05-04 01:05 | 41.69642 | 62.86765 | 33067 ft | 469 kts | 84° |
| 2026-05-04 01:06 | 41.70021 | 62.95475 | 33066 ft | 469 kts | 84° |
| 2026-05-04 01:06 | 41.70380 | 63.04139 | 33061 ft | 468 kts | 84° |
| 2026-05-04 01:07 | 41.70724 | 63.12835 | 33060 ft | 468 kts | 84° |
| 2026-05-04 01:07 | 41.71071 | 63.21518 | 33059 ft | 467 kts | 84° |
| 2026-05-04 01:08 | 41.71415 | 63.30159 | 33055 ft | 467 kts | 84° |
| 2026-05-04 01:08 | 41.71756 | 63.38839 | 33056 ft | 467 kts | 84° |
| 2026-05-04 01:09 | 41.72090 | 63.47478 | 33052 ft | 468 kts | 83° |
| 2026-05-04 01:09 | 41.72418 | 63.56146 | 33053 ft | 467 kts | 83° |
| 2026-05-04 01:10 | 41.72742 | 63.64846 | 33051 ft | 467 kts | 83° |
| 2026-05-04 01:10 | 41.73056 | 63.73539 | 33046 ft | 467 kts | 84° |
| 2026-05-04 01:11 | 41.73363 | 63.82194 | 33050 ft | 466 kts | 84° |
| 2026-05-04 01:11 | 41.73665 | 63.90855 | 33050 ft | 465 kts | 84° |
| 2026-05-04 01:12 | 41.73961 | 63.99552 | 33050 ft | 465 kts | 84° |
| 2026-05-04 01:12 | 41.74252 | 64.08196 | 33046 ft | 465 kts | 84° |
| 2026-05-04 01:13 | 41.74537 | 64.16881 | 33046 ft | 465 kts | 83° |
| 2026-05-04 01:13 | 41.74817 | 64.25532 | 33046 ft | 464 kts | 84° |
| 2026-05-04 01:14 | 41.75089 | 64.34180 | 33048 ft | 464 kts | 83° |
| 2026-05-04 01:14 | 41.75357 | 64.42771 | 33039 ft | 463 kts | 83° |
| 2026-05-04 01:15 | 41.75620 | 64.51403 | 33039 ft | 463 kts | 83° |
| 2026-05-04 01:15 | 41.75943 | 64.60005 | 33038 ft | 460 kts | 80° |
| 2026-05-04 01:16 | 41.76849 | 64.68495 | 33217 ft | 460 kts | 75° |
| 2026-05-04 01:16 | 41.77447 | 64.72708 | 33508 ft | 458 kts | 75° |
| 2026-05-04 01:16 | 41.78052 | 64.76894 | 33796 ft | 457 kts | 75° |
| 2026-05-04 01:16 | 41.78660 | 64.81096 | 34081 ft | 455 kts | 74° |
| 2026-05-04 01:17 | 41.79260 | 64.85253 | 34327 ft | 454 kts | 74° |
| 2026-05-04 01:17 | 41.79856 | 64.89390 | 34531 ft | 454 kts | 75° |
| 2026-05-04 01:17 | 41.80448 | 64.93525 | 34729 ft | 453 kts | 75° |
| 2026-05-04 01:17 | 41.81045 | 64.97705 | 34933 ft | 453 kts | 75° |
| 2026-05-04 01:18 | 41.81633 | 65.01843 | 35033 ft | 453 kts | 75° |
| 2026-05-04 01:18 | 41.82806 | 65.10135 | 35042 ft | 452 kts | 75° |
| 2026-05-04 01:19 | 41.83973 | 65.18434 | 35041 ft | 452 kts | 75° |
| 2026-05-04 01:19 | 41.85129 | 65.26696 | 35042 ft | 452 kts | 75° |
| 2026-05-04 01:20 | 41.86285 | 65.35007 | 35040 ft | 452 kts | 74° |
| 2026-05-04 01:20 | 41.87440 | 65.43346 | 35039 ft | 452 kts | 75° |
| 2026-05-04 01:21 | 41.88574 | 65.51581 | 35039 ft | 451 kts | 75° |
| 2026-05-04 01:21 | 41.89713 | 65.59907 | 35039 ft | 450 kts | 74° |
| 2026-05-04 01:22 | 41.90836 | 65.68145 | 35037 ft | 450 kts | 75° |
| 2026-05-04 01:22 | 41.91958 | 65.76458 | 35031 ft | 449 kts | 75° |
| 2026-05-04 01:23 | 41.93075 | 65.84717 | 35033 ft | 449 kts | 75° |
| 2026-05-04 01:23 | 41.94184 | 65.92934 | 35032 ft | 449 kts | 75° |
| 2026-05-04 01:24 | 41.95283 | 66.01218 | 35031 ft | 448 kts | 75° |
| 2026-05-04 01:24 | 41.96351 | 66.09454 | 35028 ft | 446 kts | 75° |
| 2026-05-04 01:25 | 41.97416 | 66.17638 | 35020 ft | 446 kts | 75° |
| 2026-05-04 01:25 | 41.98495 | 66.25918 | 35019 ft | 447 kts | 75° |
| 2026-05-04 01:26 | 41.99568 | 66.34163 | 35021 ft | 447 kts | 75° |
| 2026-05-04 01:26 | 42.00630 | 66.42396 | 35025 ft | 447 kts | 75° |
| 2026-05-04 01:27 | 42.01687 | 66.50622 | 35022 ft | 447 kts | 75° |
| 2026-05-04 01:27 | 42.02743 | 66.58878 | 35025 ft | 447 kts | 75° |
| 2026-05-04 01:28 | 42.03793 | 66.67130 | 35026 ft | 447 kts | 76° |
| 2026-05-04 01:28 | 42.04820 | 66.75301 | 35020 ft | 446 kts | 76° |
| 2026-05-04 01:29 | 42.05850 | 66.83509 | 35026 ft | 446 kts | 76° |
| 2026-05-04 01:29 | 42.06878 | 66.91697 | 35026 ft | 445 kts | 76° |
| 2026-05-04 01:30 | 42.07903 | 66.99886 | 35025 ft | 445 kts | 76° |
| 2026-05-04 01:30 | 42.08915 | 67.08073 | 35022 ft | 445 kts | 76° |
| 2026-05-04 01:31 | 42.09892 | 67.16302 | 35023 ft | 446 kts | 76° |
| 2026-05-04 01:31 | 42.10902 | 67.24602 | 35021 ft | 446 kts | 76° |
| 2026-05-04 01:32 | 42.11902 | 67.32825 | 35017 ft | 446 kts | 76° |
| 2026-05-04 01:32 | 42.12885 | 67.41038 | 35030 ft | 446 kts | 76° |
| 2026-05-04 01:33 | 42.13819 | 67.48903 | 35026 ft | 446 kts | 77° |
| 2026-05-04 01:33 | 42.14789 | 67.57143 | 35014 ft | 446 kts | 77° |
| 2026-05-04 01:34 | 42.15756 | 67.65425 | 35009 ft | 447 kts | 78° |
| 2026-05-04 01:34 | 42.16716 | 67.73724 | 35003 ft | 448 kts | 78° |
| 2026-05-04 01:35 | 42.17672 | 67.82032 | 35002 ft | 448 kts | 78° |
| 2026-05-04 01:35 | 42.18619 | 67.90288 | 35001 ft | 448 kts | 78° |
| 2026-05-04 01:36 | 42.19568 | 67.98621 | 35000 ft | 449 kts | 78° |
| 2026-05-04 01:36 | 42.20506 | 68.06889 | 35009 ft | 449 kts | 78° |
| 2026-05-04 01:37 | 42.21447 | 68.15216 | 35007 ft | 448 kts | 78° |
| 2026-05-04 01:37 | 42.22366 | 68.23445 | 35005 ft | 447 kts | 78° |
| 2026-05-04 01:38 | 42.23365 | 68.31764 | 35010 ft | 448 kts | 77° |
| 2026-05-04 01:38 | 42.24418 | 68.39995 | 35009 ft | 449 kts | 77° |
| 2026-05-04 01:39 | 42.25474 | 68.48288 | 35003 ft | 448 kts | 77° |
| 2026-05-04 01:39 | 42.26521 | 68.56587 | 35008 ft | 448 kts | 78° |
| 2026-05-04 01:40 | 42.27551 | 68.64823 | 35008 ft | 448 kts | 78° |
| 2026-05-04 01:40 | 42.28584 | 68.73155 | 35001 ft | 448 kts | 79° |
| 2026-05-04 01:41 | 42.29606 | 68.81441 | 35013 ft | 449 kts | 79° |
| 2026-05-04 01:41 | 42.30622 | 68.89737 | 35011 ft | 449 kts | 79° |
| 2026-05-04 01:42 | 42.31638 | 68.98041 | 35006 ft | 449 kts | 79° |
| 2026-05-04 01:42 | 42.32644 | 69.06326 | 35025 ft | 449 kts | 79° |
| 2026-05-04 01:43 | 42.33648 | 69.14648 | 35034 ft | 449 kts | 79° |
| 2026-05-04 01:43 | 42.34648 | 69.22948 | 35032 ft | 450 kts | 79° |
| 2026-05-04 01:44 | 42.35648 | 69.31307 | 35040 ft | 451 kts | 79° |
| 2026-05-04 01:44 | 42.36640 | 69.39632 | 35047 ft | 451 kts | 78° |
| 2026-05-04 01:45 | 42.38025 | 69.47893 | 35054 ft | 450 kts | 73° |
| 2026-05-04 01:45 | 42.40827 | 69.59948 | 35050 ft | 449 kts | 71° |
| 2026-05-04 01:46 | 42.42725 | 69.68017 | 35060 ft | 447 kts | 72° |
| 2026-05-04 01:46 | 42.44582 | 69.75989 | 35060 ft | 448 kts | 72° |
| 2026-05-04 01:47 | 42.46448 | 69.84020 | 35074 ft | 451 kts | 72° |
| 2026-05-04 01:47 | 42.48335 | 69.92147 | 35093 ft | 453 kts | 72° |
| 2026-05-04 01:48 | 42.50210 | 70.00249 | 35111 ft | 453 kts | 72° |
| 2026-05-04 01:48 | 42.52126 | 70.08361 | 35118 ft | 453 kts | 70° |
| 2026-05-04 01:49 | 42.54316 | 70.16341 | 35120 ft | 450 kts | 69° |
| 2026-05-04 01:49 | 42.56537 | 70.24303 | 35122 ft | 451 kts | 69° |
| 2026-05-04 01:50 | 42.58763 | 70.32301 | 35121 ft | 454 kts | 69° |
| 2026-05-04 01:50 | 42.60974 | 70.40300 | 35133 ft | 454 kts | 69° |
| 2026-05-04 01:51 | 42.63179 | 70.48334 | 35136 ft | 455 kts | 70° |
| 2026-05-04 01:51 | 42.65375 | 70.56383 | 35141 ft | 454 kts | 70° |
| 2026-05-04 01:52 | 42.67637 | 70.64397 | 35134 ft | 454 kts | 68° |
| 2026-05-04 01:52 | 42.70059 | 70.72360 | 35148 ft | 453 kts | 69° |
| 2026-05-04 01:53 | 42.72472 | 70.80260 | 35154 ft | 453 kts | 69° |
| 2026-05-04 01:53 | 42.74871 | 70.88131 | 35142 ft | 453 kts | 69° |
| 2026-05-04 01:54 | 42.77288 | 70.96069 | 35114 ft | 454 kts | 69° |
| 2026-05-04 01:54 | 42.79716 | 71.04059 | 35136 ft | 455 kts | 69° |
| 2026-05-04 01:55 | 42.82122 | 71.12004 | 35105 ft | 455 kts | 69° |
| 2026-05-04 01:55 | 42.84382 | 71.20024 | 35102 ft | 455 kts | 73° |
| 2026-05-04 01:56 | 42.85865 | 71.28418 | 35087 ft | 454 kts | 82° |
| 2026-05-04 01:56 | 42.86447 | 71.37034 | 35089 ft | 453 kts | 90° |
| 2026-05-04 01:57 | 42.86228 | 71.45569 | 35085 ft | 452 kts | 95° |
| 2026-05-04 01:57 | 42.85853 | 71.54113 | 35084 ft | 453 kts | 95° |
| 2026-05-04 01:58 | 42.85484 | 71.62698 | 35102 ft | 453 kts | 95° |
| 2026-05-04 01:58 | 42.85112 | 71.71298 | 35107 ft | 454 kts | 95° |
| 2026-05-04 01:59 | 42.84828 | 71.79841 | 35109 ft | 455 kts | 93° |
| 2026-05-04 01:59 | 42.84708 | 71.88483 | 35153 ft | 455 kts | 93° |
| 2026-05-04 02:00 | 42.84602 | 71.97122 | 35174 ft | 457 kts | 93° |
| 2026-05-04 02:00 | 42.84492 | 72.05766 | 35140 ft | 457 kts | 93° |
| 2026-05-04 02:01 | 42.84375 | 72.14463 | 35156 ft | 457 kts | 93° |
| 2026-05-04 02:01 | 42.84252 | 72.23059 | 35160 ft | 457 kts | 93° |
| 2026-05-04 02:02 | 42.84122 | 72.31723 | 35165 ft | 456 kts | 93° |
| 2026-05-04 02:02 | 42.83987 | 72.40359 | 35170 ft | 456 kts | 93° |
| 2026-05-04 02:03 | 42.83847 | 72.48956 | 35126 ft | 454 kts | 93° |
| 2026-05-04 02:03 | 42.83775 | 72.53249 | 34772 ft | 454 kts | 93° |
| 2026-05-04 02:03 | 42.83700 | 72.57556 | 33942 ft | 459 kts | 93° |
| 2026-05-04 02:04 | 42.83622 | 72.61908 | 32935 ft | 465 kts | 93° |
| 2026-05-04 02:04 | 42.83541 | 72.66351 | 32019 ft | 467 kts | 94° |
| 2026-05-04 02:04 | 42.83460 | 72.70742 | 31038 ft | 465 kts | 94° |
| 2026-05-04 02:04 | 42.83379 | 72.75146 | 29828 ft | 465 kts | 94° |
| 2026-05-04 02:05 | 42.83293 | 72.79523 | 28490 ft | 467 kts | 94° |
| 2026-05-04 02:05 | 42.83204 | 72.83934 | 27032 ft | 471 kts | 93° |
| 2026-05-04 02:05 | 42.83112 | 72.88403 | 25464 ft | 475 kts | 93° |
| 2026-05-04 02:05 | 42.83020 | 72.92861 | 23838 ft | 479 kts | 92° |
| 2026-05-04 02:06 | 42.82927 | 72.97328 | 22624 ft | 472 kts | 92° |
| 2026-05-04 02:06 | 42.82836 | 73.01739 | 21765 ft | 460 kts | 92° |
| 2026-05-04 02:06 | 42.82748 | 73.06039 | 20709 ft | 453 kts | 92° |
| 2026-05-04 02:06 | 42.82658 | 73.10252 | 19645 ft | 446 kts | 92° |
| 2026-05-04 02:07 | 42.82569 | 73.14455 | 18572 ft | 440 kts | 92° |
| 2026-05-04 02:07 | 42.82478 | 73.18585 | 17521 ft | 434 kts | 91° |
| 2026-05-04 02:07 | 42.82386 | 73.22647 | 16528 ft | 428 kts | 91° |
| 2026-05-04 02:07 | 42.82297 | 73.26594 | 15927 ft | 412 kts | 91° |
| 2026-05-04 02:08 | 42.82212 | 73.30444 | 15427 ft | 401 kts | 91° |
| 2026-05-04 02:08 | 42.82129 | 73.34177 | 15046 ft | 386 kts | 91° |
| 2026-05-04 02:08 | 42.82048 | 73.37698 | 14895 ft | 357 kts | 91° |
| 2026-05-04 02:08 | 42.81973 | 73.40949 | 14758 ft | 330 kts | 90° |
| 2026-05-04 02:09 | 42.81899 | 73.44015 | 14648 ft | 316 kts | 90° |
| 2026-05-04 02:09 | 42.81826 | 73.46979 | 14548 ft | 303 kts | 90° |
| 2026-05-04 02:09 | 42.81781 | 73.49770 | 14438 ft | 294 kts | 88° |
| 2026-05-04 02:09 | 42.81863 | 73.52554 | 14299 ft | 289 kts | 83° |
| 2026-05-04 02:10 | 42.82183 | 73.55293 | 14165 ft | 293 kts | 76° |
| 2026-05-04 02:10 | 42.82744 | 73.57964 | 13707 ft | 297 kts | 70° |
| 2026-05-04 02:10 | 42.83425 | 73.60626 | 13234 ft | 299 kts | 69° |
| 2026-05-04 02:10 | 42.84127 | 73.63312 | 12794 ft | 300 kts | 69° |
| 2026-05-04 02:11 | 42.84826 | 73.66006 | 12346 ft | 301 kts | 70° |
| 2026-05-04 02:11 | 42.85516 | 73.68695 | 11896 ft | 303 kts | 70° |
| 2026-05-04 02:11 | 42.86213 | 73.71429 | 11432 ft | 305 kts | 70° |
| 2026-05-04 02:11 | 42.86911 | 73.74176 | 11022 ft | 305 kts | 71° |
| 2026-05-04 02:12 | 42.87598 | 73.76878 | 10619 ft | 302 kts | 70° |
| 2026-05-04 02:12 | 42.88287 | 73.79598 | 10193 ft | 302 kts | 70° |
| 2026-05-04 02:12 | 42.88967 | 73.82282 | 9923 ft | 298 kts | 70° |
| 2026-05-04 02:12 | 42.89642 | 73.84942 | 9627 ft | 293 kts | 71° |
| 2026-05-04 02:13 | 42.90294 | 73.87525 | 9299 ft | 289 kts | 71° |
| 2026-05-04 02:13 | 42.90948 | 73.90114 | 8975 ft | 287 kts | 71° |
| 2026-05-04 02:13 | 42.91595 | 73.92691 | 8665 ft | 284 kts | 71° |
| 2026-05-04 02:13 | 42.92230 | 73.95225 | 8306 ft | 281 kts | 71° |
| 2026-05-04 02:14 | 42.92862 | 73.97739 | 7961 ft | 278 kts | 70° |
| 2026-05-04 02:14 | 42.93522 | 74.00230 | 7596 ft | 276 kts | 67° |
| 2026-05-04 02:14 | 42.94298 | 74.02617 | 7254 ft | 273 kts | 65° |
| 2026-05-04 02:14 | 42.95100 | 74.04965 | 6908 ft | 271 kts | 64° |
| 2026-05-04 02:15 | 42.95898 | 74.07284 | 6568 ft | 269 kts | 64° |
| 2026-05-04 02:15 | 42.96693 | 74.09599 | 6221 ft | 266 kts | 64° |
| 2026-05-04 02:15 | 42.97479 | 74.11887 | 5860 ft | 265 kts | 64° |
| 2026-05-04 02:15 | 42.98261 | 74.14170 | 5512 ft | 263 kts | 64° |
| 2026-05-04 02:16 | 42.99026 | 74.16406 | 5244 ft | 258 kts | 64° |
| 2026-05-04 02:16 | 42.99773 | 74.18593 | 5002 ft | 252 kts | 65° |
| 2026-05-04 02:16 | 43.00507 | 74.20745 | 4827 ft | 244 kts | 64° |
| 2026-05-04 02:16 | 43.01225 | 74.22852 | 4634 ft | 245 kts | 64° |
| 2026-05-04 02:17 | 43.01950 | 74.24984 | 4454 ft | 246 kts | 64° |
| 2026-05-04 02:17 | 43.02671 | 74.27110 | 4265 ft | 245 kts | 64° |
| 2026-05-04 02:17 | 43.03385 | 74.29237 | 4008 ft | 247 kts | 67° |
| 2026-05-04 02:17 | 43.03926 | 74.31432 | 3695 ft | 242 kts | 75° |
| 2026-05-04 02:18 | 43.04301 | 74.33643 | 3415 ft | 227 kts | 78° |
| 2026-05-04 02:18 | 43.04568 | 74.35645 | 3389 ft | 204 kts | 79° |
| 2026-05-04 02:18 | 43.04796 | 74.37476 | 3216 ft | 189 kts | 79° |
| 2026-05-04 02:18 | 43.05016 | 74.39201 | 2965 ft | 182 kts | 79° |
| 2026-05-04 02:19 | 43.05234 | 74.40860 | 2707 ft | 171 kts | 80° |
| 2026-05-04 02:19 | 43.05446 | 74.42483 | 2529 ft | 174 kts | 80° |
| 2026-05-04 02:19 | 43.05550 | 74.43276 | 2438 ft | 170 kts | 80° |
| 2026-05-04 02:20 | 43.05645 | 74.44010 | 2374 ft | 166 kts | 81° |
| 2026-05-04 02:20 | 43.05841 | 74.45545 | 2135 ft | 165 kts | 81° |
| 2026-05-04 02:20 | 43.06021 | 74.47012 | 2094 ft | 146 kts | 78° |
| 2026-05-04 02:20 | 43.06182 | 74.48167 | 2094 ft | 97 kts | 80° |
| 2026-05-04 02:21 | 43.06263 | 74.48804 | 2094 ft | 40 kts | 79° |
| 2026-05-04 02:21 | 43.06312 | 74.49175 | 2094 ft | 37 kts | 79° |
| 2026-05-04 02:21 | 43.06357 | 74.49519 | 2094 ft | 35 kts | 79° |
| 2026-05-04 02:21 | 43.06398 | 74.49845 | 2094 ft | 32 kts | 79° |
| 2026-05-04 02:22 | 43.06428 | 74.50087 | 2094 ft | 12 kts | 86° |
| 2026-05-04 02:22 | 43.06400 | 74.50205 | 2094 ft | 13 kts | 118° |
| 2026-05-04 02:22 | 43.06438 | 74.50259 | 2094 ft | 12 kts | 311° |
| 2026-05-04 02:22 | 43.06435 | 74.50133 | 2094 ft | 15 kts | 259° |
| 2026-05-04 02:23 | 43.06412 | 74.49973 | 2094 ft | 21 kts | 259° |
| 2026-05-04 02:23 | 43.06376 | 74.49700 | 2094 ft | 33 kts | 261° |
| 2026-05-04 02:23 | 43.06339 | 74.49395 | 2094 ft | 31 kts | 261° |
| 2026-05-04 02:23 | 43.06302 | 74.49101 | 2094 ft | 31 kts | 259° |
| 2026-05-04 02:24 | 43.06236 | 74.48825 | 2094 ft | 29 kts | 231° |
| 2026-05-04 02:24 | 43.06105 | 74.48613 | 2094 ft | 28 kts | 230° |
| 2026-05-04 02:24 | 43.06002 | 74.48399 | 2094 ft | 26 kts | 255° |
| 2026-05-04 02:24 | 43.05968 | 74.48156 | 2094 ft | 25 kts | 260° |
| 2026-05-04 02:25 | 43.05937 | 74.47920 | 2094 ft | 24 kts | 259° |
| 2026-05-04 02:25 | 43.05909 | 74.47693 | 2094 ft | 23 kts | 260° |
| 2026-05-04 02:25 | 43.05881 | 74.47475 | 2094 ft | 23 kts | 259° |
| 2026-05-04 02:25 | 43.05851 | 74.47259 | 2094 ft | 22 kts | 259° |
| 2026-05-04 02:26 | 43.05759 | 74.47163 | 2094 ft | 19 kts | 177° |
| 2026-05-04 02:26 | 43.05633 | 74.47182 | 2094 ft | 18 kts | 201° |
| 2026-05-04 02:26 | 43.05590 | 74.47034 | 2094 ft | 16 kts | 260° |
| 2026-05-04 02:26 | 43.05535 | 74.46953 | 2094 ft | 10 kts | 172° |
| 2026-05-04 02:27 | 43.05507 | 74.46960 | 2094 ft | 0 kts | 169° |